Time;durP1;ratioP1;P1;durP2;ratioP2;P2;SDS_P1;SDS_P2;PMS_P1;PMS_P2;Temp;Humidity;BMP_temperature;BMP_pressure;BME280_temperature;BME280_humidity;BME280_pressure;Samples;Min_cycle;Max_cycle;Signal;HPM_P1;HPM_P2
2022/04/14 00:02:15;;;;;;;;;;;14.90;99.90;;;;;;5105589;28;20348;-69
2022/04/14 00:04:41;;;;;;;;;;;14.90;99.90;;;;;;5104664;28;19969;-71
2022/04/14 00:07:09;;;;;;;;;;;14.80;99.90;;;;;;5103531;28;20018;-70
2022/04/14 00:09:36;;;;;;;;;;;14.80;99.90;;;;;;5106619;28;19999;-71
2022/04/14 00:12:03;;;;;;;;;;;14.70;99.90;;;;;;5107857;28;19954;-69
2022/04/14 00:14:30;;;;;;;;;;;14.70;99.90;;;;;;5107967;27;19953;-69
2022/04/14 00:16:56;;;;;;;;;;;14.70;99.90;;;;;;5108787;28;20045;-68
2022/04/14 00:19:23;;;;;;;;;;;14.60;99.90;;;;;;5108691;28;19942;-70
2022/04/14 00:21:49;;;;;;;;;;;14.60;99.90;;;;;;5132371;22;19972;-68
2022/04/14 00:24:17;;;;;;;;;;;14.60;99.90;;;;;;5099649;27;20453;-68
2022/04/14 00:26:44;;;;;;;;;;;14.50;99.90;;;;;;5109092;28;19940;-69
2022/04/14 00:29:11;;;;;;;;;;;14.50;99.90;;;;;;5108963;28;19941;-69
2022/04/14 00:31:37;;;;;;;;;;;14.50;99.90;;;;;;5110066;28;19954;-67
2022/04/14 00:34:04;;;;;;;;;;;14.50;99.90;;;;;;5112945;28;19947;-69
2022/04/14 00:36:33;;;;;;;;;;;14.50;99.90;;;;;;5112938;28;19939;-68
2022/04/14 00:38:59;;;;;;;;;;;14.50;99.90;;;;;;5107450;28;20459;-68
2022/04/14 00:41:28;;;;;;;;;;;14.60;99.90;;;;;;5109315;28;19955;-68
2022/04/14 00:43:54;;;;;;;;;;;14.60;99.90;;;;;;5111624;27;19985;-69
2022/04/14 00:46:21;;;;;;;;;;;14.60;99.90;;;;;;5110275;28;19947;-68
2022/04/14 00:48:49;;;;;;;;;;;14.60;99.90;;;;;;5110783;28;19946;-68
2022/04/14 00:51:15;;;;;;;;;;;14.60;99.90;;;;;;5111216;28;19938;-68
2022/04/14 00:53:42;;;;;;;;;;;14.60;99.90;;;;;;5109038;28;19950;-69
2022/04/14 00:56:08;;;;;;;;;;;14.60;99.90;;;;;;5110290;28;19940;-69
2022/04/14 00:58:36;;;;;;;;;;;14.60;99.90;;;;;;5110808;27;20019;-69
2022/04/14 01:01:05;;;;;;;;;;;14.50;99.90;;;;;;5109992;28;19940;-70
2022/04/14 01:03:32;;;;;;;;;;;14.50;99.90;;;;;;5109875;28;20039;-68
2022/04/14 01:05:59;;;;;;;;;;;14.50;99.90;;;;;;5108908;28;19941;-69
2022/04/14 01:08:26;;;;;;;;;;;14.50;99.90;;;;;;5109814;28;19942;-69
2022/04/14 01:10:54;;;;;;;;;;;14.40;99.90;;;;;;5110403;28;20092;-69
2022/04/14 01:13:21;;;;;;;;;;;14.40;99.90;;;;;;5110509;28;19999;-69
2022/04/14 01:15:49;;;;;;;;;;;14.40;99.90;;;;;;5101092;28;19942;-70
2022/04/14 01:18:16;;;;;;;;;;;14.40;99.90;;;;;;5109371;28;20415;-68
2022/04/14 01:20:43;;;;;;;;;;;14.40;99.90;;;;;;5111001;28;20458;-68
2022/04/14 01:23:10;;;;;;;;;;;14.40;99.90;;;;;;5110889;28;19961;-68
2022/04/14 01:25:38;;;;;;;;;;;14.30;99.90;;;;;;5111254;28;19938;-68
2022/04/14 01:28:06;;;;;;;;;;;14.30;99.90;;;;;;5110487;28;20348;-68
2022/04/14 01:30:32;;;;;;;;;;;14.30;99.90;;;;;;5110495;28;19939;-68
2022/04/14 01:32:59;;;;;;;;;;;14.30;99.90;;;;;;5107422;28;19962;-67
2022/04/14 01:35:25;;;;;;;;;;;14.20;99.90;;;;;;5110377;28;19944;-66
2022/04/14 01:37:52;;;;;;;;;;;14.20;99.90;;;;;;5110097;28;20013;-66
2022/04/14 01:40:18;;;;;;;;;;;14.10;99.90;;;;;;5109994;28;19993;-66
2022/04/14 01:42:46;;;;;;;;;;;14.10;99.90;;;;;;5108529;28;19965;-67
2022/04/14 01:45:13;;;;;;;;;;;14.00;99.90;;;;;;5111098;28;19990;-66
2022/04/14 01:47:40;;;;;;;;;;;14.00;99.90;;;;;;5110384;28;19939;-65
2022/04/14 01:50:08;;;;;;;;;;;14.00;99.90;;;;;;5110366;28;19945;-66
2022/04/14 01:52:34;;;;;;;;;;;14.00;99.90;;;;;;5106632;27;19963;-66
2022/04/14 01:55:01;;;;;;;;;;;14.00;99.90;;;;;;5110297;28;19945;-66
2022/04/14 01:57:28;;;;;;;;;;;14.00;99.90;;;;;;5110034;28;20389;-66
2022/04/14 01:59:56;;;;;;;;;;;14.00;99.90;;;;;;5107496;28;19938;-66
2022/04/14 02:02:23;;;;;;;;;;;14.00;99.90;;;;;;5110443;28;20021;-66
2022/04/14 02:04:49;;;;;;;;;;;14.00;99.90;;;;;;5110451;28;20422;-67
2022/04/14 02:07:16;;;;;;;;;;;14.00;99.90;;;;;;5109535;28;19946;-65
2022/04/14 02:09:42;;;;;;;;;;;14.00;99.90;;;;;;5110147;28;20408;-66
2022/04/14 02:12:11;;;;;;;;;;;13.90;99.90;;;;;;5110182;28;20449;-65
2022/04/14 02:14:37;;;;;;;;;;;13.90;99.90;;;;;;5102447;28;19945;-67
2022/04/14 02:17:05;;;;;;;;;;;13.90;99.90;;;;;;5110295;28;19959;-67
2022/04/14 02:19:32;;;;;;;;;;;13.80;99.90;;;;;;5109813;28;19993;-65
2022/04/14 02:21:58;;;;;;;;;;;13.80;99.90;;;;;;5107502;28;20121;-66
2022/04/14 02:24:25;;;;;;;;;;;13.80;99.90;;;;;;5110708;28;19953;-66
2022/04/14 02:26:51;;;;;;;;;;;13.80;99.90;;;;;;5110904;28;19988;-66
2022/04/14 02:29:18;;;;;;;;;;;13.80;99.90;;;;;;5107465;28;19949;-66
2022/04/14 02:31:45;;;;;;;;;;;13.80;99.90;;;;;;5102211;28;19957;-65
2022/04/14 02:34:13;;;;;;;;;;;13.80;99.90;;;;;;5105717;28;19978;-66
2022/04/14 02:36:40;;;;;;;;;;;13.80;99.90;;;;;;5102904;28;19956;-66
2022/04/14 02:39:06;;;;;;;;;;;13.70;99.90;;;;;;5109593;28;19952;-66
2022/04/14 02:41:33;;;;;;;;;;;13.70;99.90;;;;;;5111015;28;19952;-65
2022/04/14 02:43:59;;;;;;;;;;;13.70;99.90;;;;;;5110262;28;19957;-66
2022/04/14 02:46:26;;;;;;;;;;;13.70;99.90;;;;;;5112128;28;20002;-66
2022/04/14 02:48:52;;;;;;;;;;;13.70;99.90;;;;;;5110487;28;19944;-65
2022/04/14 02:51:20;;;;;;;;;;;13.70;99.90;;;;;;5108410;28;20399;-65
2022/04/14 02:53:47;;;;;;;;;;;13.70;99.90;;;;;;5111383;28;19944;-66
2022/04/14 02:56:13;;;;;;;;;;;13.70;99.90;;;;;;5110598;28;19942;-66
2022/04/14 02:58:40;;;;;;;;;;;13.70;99.90;;;;;;5110021;28;20322;-66
2022/04/14 03:01:06;;;;;;;;;;;13.70;99.90;;;;;;5110746;28;20014;-66
2022/04/14 03:03:33;;;;;;;;;;;13.60;99.90;;;;;;5099301;28;19963;-66
2022/04/14 03:05:59;;;;;;;;;;;13.70;99.90;;;;;;5113566;28;19971;-66
2022/04/14 03:08:27;;;;;;;;;;;13.70;99.90;;;;;;5113617;28;19947;-66
2022/04/14 03:10:55;;;;;;;;;;;13.60;99.90;;;;;;5113393;28;19953;-66
2022/04/14 03:13:21;;;;;;;;;;;13.60;99.90;;;;;;5115610;28;19976;-67
2022/04/14 03:15:49;;;;;;;;;;;13.60;99.90;;;;;;5115052;28;19957;-66
2022/04/14 03:18:15;;;;;;;;;;;13.60;99.90;;;;;;5114059;28;20598;-66
2022/04/14 03:20:42;;;;;;;;;;;13.60;99.90;;;;;;5109124;28;19952;-66
2022/04/14 03:23:08;;;;;;;;;;;13.60;99.90;;;;;;5113178;27;19965;-66
2022/04/14 03:25:36;;;;;;;;;;;13.60;99.90;;;;;;5114008;28;19946;-66
2022/04/14 03:28:03;;;;;;;;;;;13.60;99.90;;;;;;5115379;28;19941;-66
2022/04/14 03:30:29;;;;;;;;;;;13.60;99.90;;;;;;5112825;28;19941;-67
2022/04/14 03:32:56;;;;;;;;;;;13.60;99.90;;;;;;5114074;28;19964;-67
2022/04/14 03:35:22;;;;;;;;;;;13.60;99.90;;;;;;5112082;28;20541;-66
2022/04/14 03:37:48;;;;;;;;;;;13.60;99.90;;;;;;5111606;28;19990;-66
2022/04/14 03:40:15;;;;;;;;;;;13.60;99.90;;;;;;5112612;28;19998;-66
2022/04/14 03:42:43;;;;;;;;;;;13.60;99.90;;;;;;5113353;28;19965;-65
2022/04/14 03:45:10;;;;;;;;;;;13.50;99.90;;;;;;5112467;28;19943;-66
2022/04/14 03:47:36;;;;;;;;;;;13.50;99.90;;;;;;5112909;28;19991;-66
2022/04/14 03:50:03;;;;;;;;;;;13.50;99.90;;;;;;5112832;28;20378;-66
2022/04/14 03:52:30;;;;;;;;;;;13.50;99.90;;;;;;5113629;28;20028;-66
2022/04/14 03:54:57;;;;;;;;;;;13.50;99.90;;;;;;5112945;28;19947;-65
2022/04/14 03:57:24;;;;;;;;;;;13.50;99.90;;;;;;5112714;28;20358;-66
2022/04/14 03:59:52;;;;;;;;;;;13.50;99.90;;;;;;5112519;28;19937;-65
2022/04/14 04:02:18;;;;;;;;;;;13.50;99.90;;;;;;5113412;28;20063;-66
2022/04/14 04:04:45;;;;;;;;;;;13.60;99.90;;;;;;5113084;28;19993;-65
2022/04/14 04:07:12;;;;;;;;;;;13.60;99.90;;;;;;5112984;28;20033;-66
2022/04/14 04:09:39;;;;;;;;;;;13.60;99.90;;;;;;5112807;28;20342;-66
2022/04/14 04:12:06;;;;;;;;;;;13.60;99.90;;;;;;5114820;28;19966;-66
2022/04/14 04:14:32;;;;;;;;;;;13.60;99.90;;;;;;5112000;28;19943;-66
2022/04/14 04:17:00;;;;;;;;;;;13.60;99.90;;;;;;5111663;28;20386;-67
2022/04/14 04:19:26;;;;;;;;;;;13.50;99.90;;;;;;5112867;28;19992;-65
2022/04/14 04:21:53;;;;;;;;;;;13.40;99.90;;;;;;5113817;28;19975;-66
2022/04/14 04:24:19;;;;;;;;;;;13.20;99.90;;;;;;5112574;28;19957;-65
2022/04/14 04:26:46;;;;;;;;;;;13.20;99.90;;;;;;5112353;28;19946;-66
2022/04/14 04:29:12;;;;;;;;;;;13.20;99.90;;;;;;5112432;28;19939;-66
2022/04/14 04:31:39;;;;;;;;;;;13.10;99.90;;;;;;5112778;28;20367;-65
2022/04/14 04:34:07;;;;;;;;;;;13.10;99.90;;;;;;5112491;28;19946;-66
2022/04/14 04:36:33;;;;;;;;;;;13.10;99.90;;;;;;5114365;28;19990;-66
2022/04/14 04:39:01;;;;;;;;;;;13.10;99.90;;;;;;5111949;28;19951;-66
2022/04/14 04:41:28;;;;;;;;;;;13.20;99.90;;;;;;5111605;28;19960;-66
2022/04/14 04:43:55;;;;;;;;;;;13.10;99.90;;;;;;5113022;28;20014;-65
2022/04/14 04:46:21;;;;;;;;;;;13.00;99.90;;;;;;5113853;28;19998;-67
2022/04/14 04:48:48;;;;;;;;;;;13.00;99.90;;;;;;5112392;28;19947;-65
2022/04/14 04:51:16;;;;;;;;;;;13.00;99.90;;;;;;5111199;28;20728;-66
2022/04/14 04:53:42;;;;;;;;;;;12.90;99.90;;;;;;5110984;28;19990;-66
2022/04/14 04:56:08;;;;;;;;;;;12.90;99.90;;;;;;5113353;28;19945;-66
2022/04/14 04:58:35;;;;;;;;;;;13.00;99.90;;;;;;5106724;28;19951;-65
2022/04/14 05:01:03;;;;;;;;;;;13.00;99.90;;;;;;5106012;28;19941;-66
2022/04/14 05:03:29;;;;;;;;;;;13.00;99.90;;;;;;5111324;28;19966;-65
2022/04/14 05:05:56;;;;;;;;;;;13.00;99.90;;;;;;5111957;28;19945;-66
2022/04/14 05:08:24;;;;;;;;;;;13.00;99.90;;;;;;5112259;28;19945;-65
2022/04/14 05:10:50;;;;;;;;;;;12.90;99.90;;;;;;5112627;28;19947;-65
2022/04/14 05:13:16;;;;;;;;;;;12.90;99.90;;;;;;5113988;28;19968;-65
2022/04/14 05:15:43;;;;;;;;;;;12.90;99.90;;;;;;5112287;28;19940;-66
2022/04/14 05:18:10;;;;;;;;;;;12.90;99.90;;;;;;5111396;28;20207;-66
2022/04/14 05:20:36;;;;;;;;;;;12.90;99.90;;;;;;5110678;28;19941;-67
2022/04/14 05:23:03;;;;;;;;;;;12.90;99.90;;;;;;5111366;28;20325;-66
2022/04/14 05:25:31;;;;;;;;;;;12.90;99.90;;;;;;5111404;28;20006;-66
2022/04/14 05:27:57;;;;;;;;;;;12.80;99.90;;;;;;5105636;28;19949;-66
2022/04/14 05:30:24;;;;;;;;;;;12.80;99.90;;;;;;5101412;28;19976;-64
2022/04/14 05:32:51;;;;;;;;;;;12.80;99.90;;;;;;5109988;28;20045;-64
2022/04/14 05:35:18;;;;;;;;;;;12.90;99.90;;;;;;5110512;28;19949;-71
2022/04/14 05:37:44;;;;;;;;;;;12.90;99.90;;;;;;5104112;28;19985;-67
2022/04/14 05:40:11;;;;;;;;;;;12.90;99.90;;;;;;5109380;28;19960;-68
2022/04/14 05:55:11;;;;;;;;;;;12.80;99.90;;;;;;5052510;28;19936;-70
2022/04/14 05:57:37;;;;;;;;;;;12.90;99.90;;;;;;5065871;28;20372;-68
2022/04/14 06:00:05;;;;;;;;;;;12.90;99.90;;;;;;5106901;28;19997;-71
2022/04/14 06:02:31;;;;;;;;;;;13.00;99.90;;;;;;5110133;28;19996;-69
2022/04/14 06:04:58;;;;;;;;;;;12.90;99.90;;;;;;5109513;28;19966;-69
2022/04/14 06:07:24;;;;;;;;;;;13.00;99.90;;;;;;5109507;28;19994;-70
2022/04/14 06:09:51;;;;;;;;;;;13.00;99.90;;;;;;5109147;28;19942;-71
2022/04/14 06:12:19;;;;;;;;;;;13.00;99.90;;;;;;5101603;28;20577;-71
2022/04/14 06:14:46;;;;;;;;;;;13.10;99.90;;;;;;5108867;28;19941;-70
2022/04/14 06:17:12;;;;;;;;;;;13.00;99.90;;;;;;5109506;28;19949;-70
2022/04/14 06:19:39;;;;;;;;;;;13.10;99.90;;;;;;5109158;28;20384;-70
2022/04/14 06:22:05;;;;;;;;;;;13.10;99.90;;;;;;5108605;28;19981;-71
2022/04/14 06:24:32;;;;;;;;;;;13.10;99.90;;;;;;5108710;28;19968;-70
2022/04/14 06:26:59;;;;;;;;;;;13.00;99.90;;;;;;5110349;28;19942;-70
2022/04/14 06:29:27;;;;;;;;;;;13.00;99.90;;;;;;5098567;28;19943;-70
2022/04/14 06:31:53;;;;;;;;;;;13.10;99.90;;;;;;5111498;28;20020;-70
2022/04/14 06:34:20;;;;;;;;;;;13.10;99.90;;;;;;5109762;28;20001;-72
2022/04/14 06:36:46;;;;;;;;;;;13.10;99.90;;;;;;5110111;28;19943;-69
2022/04/14 06:39:13;;;;;;;;;;;13.10;99.90;;;;;;5110488;28;19941;-70
2022/04/14 06:41:40;;;;;;;;;;;13.10;99.90;;;;;;5114309;28;20483;-68
2022/04/14 06:44:07;;;;;;;;;;;13.20;99.90;;;;;;5115090;28;20368;-67
2022/04/14 06:46:34;;;;;;;;;;;13.20;99.90;;;;;;5115510;28;19949;-69
2022/04/14 06:49:03;;;;;;;;;;;13.30;99.90;;;;;;5114368;28;19945;-68
2022/04/14 06:51:30;;;;;;;;;;;13.40;99.90;;;;;;5114232;28;19946;-68
2022/04/14 06:53:57;;;;;;;;;;;13.60;99.90;;;;;;5114354;28;19995;-69
2022/04/14 06:56:23;;;;;;;;;;;13.70;99.90;;;;;;5113864;28;19944;-68
2022/04/14 06:58:50;;;;;;;;;;;13.80;99.90;;;;;;5113181;28;20402;-69
2022/04/14 07:01:16;;;;;;;;;;;14.00;99.90;;;;;;5112054;28;19972;-70
2022/04/14 07:03:44;;;;;;;;;;;14.20;99.90;;;;;;5103141;28;19966;-69
2022/04/14 07:06:11;;;;;;;;;;;14.40;99.90;;;;;;5107350;28;20575;-69
2022/04/14 07:08:38;;;;;;;;;;;14.50;99.90;;;;;;5112900;28;20009;-69
2022/04/14 07:11:05;;;;;;;;;;;14.50;99.90;;;;;;5113011;28;20332;-69
2022/04/14 07:13:31;;;;;;;;;;;14.60;99.90;;;;;;5113062;28;20031;-69
2022/04/14 07:16:00;;;;;;;;;;;14.70;99.90;;;;;;5110562;28;20013;-69
2022/04/14 07:18:26;;;;;;;;;;;14.80;99.90;;;;;;5112669;28;19945;-70
2022/04/14 07:20:54;;;;;;;;;;;14.80;99.90;;;;;;5111389;28;19966;-70
2022/04/14 07:23:21;;;;;;;;;;;14.90;99.90;;;;;;5111486;28;19970;-67
2022/04/14 07:25:48;;;;;;;;;;;15.00;99.90;;;;;;5110091;28;19992;-67
2022/04/14 07:28:14;;;;;;;;;;;15.10;99.90;;;;;;5112764;28;19949;-68
2022/04/14 07:30:42;;;;;;;;;;;15.10;99.90;;;;;;5111512;28;19994;-68
2022/04/14 07:33:08;;;;;;;;;;;15.20;99.90;;;;;;5122865;22;20028;-73
2022/04/14 07:35:35;;;;;;;;;;;15.30;99.90;;;;;;5107641;28;20478;-74
2022/04/14 07:38:02;;;;;;;;;;;15.40;99.90;;;;;;5096128;28;20017;-74
2022/04/14 07:40:29;;;;;;;;;;;15.50;99.90;;;;;;5106852;28;19985;-73
2022/04/14 07:42:56;;;;;;;;;;;15.50;99.90;;;;;;5109016;28;20045;-75
2022/04/14 07:45:22;;;;;;;;;;;15.50;99.90;;;;;;5107140;28;20022;-75
2022/04/14 07:47:49;;;;;;;;;;;15.60;99.90;;;;;;5107878;28;19942;-73
2022/04/14 07:50:16;;;;;;;;;;;15.60;99.90;;;;;;5102428;28;19944;-76
2022/04/14 07:52:47;;;;;;;;;;;15.60;99.90;;;;;;5102993;28;19955;-76
2022/04/14 07:55:18;;;;;;;;;;;15.70;99.90;;;;;;5097027;28;19941;-76
2022/04/14 07:57:45;;;;;;;;;;;15.80;99.90;;;;;;5107749;28;19998;-75
2022/04/14 08:00:12;;;;;;;;;;;15.80;99.90;;;;;;5108240;28;19995;-73
2022/04/14 08:02:45;;;;;;;;;;;15.90;99.90;;;;;;5101982;28;20011;-74
2022/04/14 08:05:12;;;;;;;;;;;15.90;99.90;;;;;;5109832;28;19962;-73
2022/04/14 08:07:39;;;;;;;;;;;16.10;99.90;;;;;;5108194;28;20030;-73
2022/04/14 08:10:05;;;;;;;;;;;16.20;99.90;;;;;;5094721;28;19988;-75
2022/04/14 08:12:33;;;;;;;;;;;16.30;99.90;;;;;;5107922;28;19975;-76
2022/04/14 08:15:00;;;;;;;;;;;16.40;99.90;;;;;;5104824;28;19958;-74
2022/04/14 08:17:26;;;;;;;;;;;16.60;99.90;;;;;;5105582;28;19948;-76
2022/04/14 08:19:53;;;;;;;;;;;16.70;99.90;;;;;;5106511;28;20392;-74
2022/04/14 08:22:19;;;;;;;;;;;16.80;99.90;;;;;;5093268;28;20029;-74
2022/04/14 08:24:47;;;;;;;;;;;16.90;99.90;;;;;;5099860;28;19999;-74
2022/04/14 08:27:14;;;;;;;;;;;16.90;99.90;;;;;;5108962;28;19945;-74
2022/04/14 08:29:42;;;;;;;;;;;16.90;99.90;;;;;;5107850;28;20011;-75
2022/04/14 08:32:09;;;;;;;;;;;16.90;99.90;;;;;;5101033;28;20423;-75
2022/04/14 08:34:36;;;;;;;;;;;17.00;99.90;;;;;;5105141;28;20337;-74
2022/04/14 08:37:03;;;;;;;;;;;17.00;99.90;;;;;;5107693;28;20031;-74
2022/04/14 08:39:30;;;;;;;;;;;17.10;99.90;;;;;;5107538;28;19945;-74
2022/04/14 08:42:05;;;;;;;;;;;17.10;99.90;;;;;;5105887;28;19941;-73
2022/04/14 08:44:36;;;;;;;;;;;17.30;99.90;;;;;;5112943;28;20095;-74
2022/04/14 08:47:06;;;;;;;;;;;17.40;99.90;;;;;;5104312;28;20381;-73
2022/04/14 08:49:33;;;;;;;;;;;17.50;99.90;;;;;;5109922;28;19983;-74
2022/04/14 08:51:59;;;;;;;;;;;17.60;99.90;;;;;;5104073;28;19943;-73
2022/04/14 08:54:26;;;;;;;;;;;17.60;99.90;;;;;;5105857;28;20041;-72
2022/04/14 08:56:58;;;;;;;;;;;17.80;99.90;;;;;;5107638;28;20001;-73
2022/04/14 08:59:25;;;;;;;;;;;18.10;99.90;;;;;;5095448;28;20024;-73
2022/04/14 09:01:52;;;;;;;;;;;18.40;99.90;;;;;;5104048;28;20025;-73
2022/04/14 09:04:20;;;;;;;;;;;18.50;99.90;;;;;;5107269;28;19965;-73
2022/04/14 09:06:47;;;;;;;;;;;18.70;99.90;;;;;;5102035;28;20449;-73
2022/04/14 09:09:13;;;;;;;;;;;18.80;99.90;;;;;;5095959;28;19942;-74
2022/04/14 09:11:40;;;;;;;;;;;18.80;99.90;;;;;;5105219;28;20011;-73
2022/04/14 09:14:06;;;;;;;;;;;18.90;99.90;;;;;;5106863;28;20027;-73
2022/04/14 09:16:33;;;;;;;;;;;19.00;99.90;;;;;;5107568;28;20008;-74
2022/04/14 09:19:00;;;;;;;;;;;19.00;99.90;;;;;;5105637;28;19974;-74
2022/04/14 09:21:28;;;;;;;;;;;19.10;99.90;;;;;;5105510;28;19945;-75
2022/04/14 09:23:55;;;;;;;;;;;19.20;99.90;;;;;;5108044;28;19969;-73
2022/04/14 09:26:24;;;;;;;;;;;19.30;99.90;;;;;;5107755;28;19944;-74
2022/04/14 09:29:00;;;;;;;;;;;19.60;99.90;;;;;;5107500;28;19946;-75
2022/04/14 09:31:27;;;;;;;;;;;19.80;99.90;;;;;;5101781;28;19956;-74
2022/04/14 09:33:54;;;;;;;;;;;20.20;99.90;;;;;;5102496;28;19964;-75
2022/04/14 09:36:22;;;;;;;;;;;20.50;99.90;;;;;;5102011;28;19942;-74
2022/04/14 09:38:54;;;;;;;;;;;20.80;99.90;;;;;;5102867;28;19973;-74
2022/04/14 09:41:28;;;;;;;;;;;21.00;99.90;;;;;;5105695;28;20003;-74
2022/04/14 09:43:54;;;;;;;;;;;20.90;99.90;;;;;;5099262;28;19981;-74
2022/04/14 09:46:21;;;;;;;;;;;21.00;99.90;;;;;;5106450;28;19985;-74
2022/04/14 09:49:14;;;;;;;;;;;20.80;99.90;;;;;;5106401;28;20059;-74
2022/04/14 09:51:42;;;;;;;;;;;20.40;99.90;;;;;;5047619;28;20328;-73
2022/04/14 09:54:15;;;;;;;;;;;20.00;99.90;;;;;;5106245;28;19962;-74
2022/04/14 09:56:43;;;;;;;;;;;19.70;99.90;;;;;;5105814;28;20422;-74
2022/04/14 09:59:10;;;;;;;;;;;19.80;99.90;;;;;;5107206;28;19953;-73
2022/04/14 10:01:36;;;;;;;;;;;20.20;99.90;;;;;;5106198;28;19953;-74
2022/04/14 10:04:03;;;;;;;;;;;20.80;99.90;;;;;;5106380;28;20021;-75
2022/04/14 10:06:30;;;;;;;;;;;21.10;99.90;;;;;;5104851;28;20016;-72
2022/04/14 10:08:57;;;;;;;;;;;21.40;99.90;;;;;;5092489;28;19959;-72
2022/04/14 10:11:29;;;;;;;;;;;21.60;99.90;;;;;;5098527;28;19986;-72
2022/04/14 10:14:09;;;;;;;;;;;21.70;99.90;;;;;;5103052;28;20166;-71
2022/04/14 10:16:36;;;;;;;;;;;21.90;99.90;;;;;;5101277;28;20384;-71
2022/04/14 10:19:02;;;;;;;;;;;22.30;99.90;;;;;;5094370;28;20039;-71
2022/04/14 10:21:30;;;;;;;;;;;22.50;99.90;;;;;;5104852;28;20392;-72
2022/04/14 10:23:56;;;;;;;;;;;22.90;99.90;;;;;;5097928;28;20348;-73
2022/04/14 10:26:23;;;;;;;;;;;23.00;99.90;;;;;;5105312;28;19958;-70
2022/04/14 10:28:53;;;;;;;;;;;22.90;99.90;;;;;;5099204;28;19952;-72
2022/04/14 10:31:19;;;;;;;;;;;22.80;99.90;;;;;;5104885;28;20018;-70
2022/04/14 10:33:46;;;;;;;;;;;22.90;99.90;;;;;;5098945;28;19972;-75
2022/04/14 10:36:13;;;;;;;;;;;23.10;99.90;;;;;;5104963;28;20021;-74
2022/04/14 10:38:40;;;;;;;;;;;23.30;99.90;;;;;;5102686;28;20003;-72
2022/04/14 10:41:12;;;;;;;;;;;23.60;99.90;;;;;;5102787;28;20013;-75
2022/04/14 10:43:41;;;;;;;;;;;23.70;99.90;;;;;;5089988;28;19961;-74
2022/04/14 10:46:11;;;;;;;;;;;23.40;99.90;;;;;;5105210;28;19973;-72
2022/04/14 10:48:39;;;;;;;;;;;23.30;99.90;;;;;;5099838;28;20000;-72
2022/04/14 10:51:23;;;;;;;;;;;23.20;99.90;;;;;;5096519;28;20107;-76
2022/04/14 10:53:51;;;;;;;;;;;23.30;99.90;;;;;;5103302;28;20345;-74
2022/04/14 10:56:36;;;;;;;;;;;23.20;99.90;;;;;;5096785;28;20101;-73
2022/04/14 10:59:03;;;;;;;;;;;23.20;99.90;;;;;;5103105;28;19958;-75
2022/04/14 11:01:50;;;;;;;;;;;23.00;99.90;;;;;;5103857;28;19991;-72
2022/04/14 11:04:24;;;;;;;;;;;23.00;99.90;;;;;;5099581;28;20271;-75
2022/04/14 11:06:51;;;;;;;;;;;23.30;99.90;;;;;;5108462;28;20052;-72
2022/04/14 11:09:36;;;;;;;;;;;23.40;99.90;;;;;;5100419;28;20035;-73
2022/04/14 11:12:03;;;;;;;;;;;23.20;99.90;;;;;;5097784;28;19953;-75
2022/04/14 11:14:34;;;;;;;;;;;22.80;99.90;;;;;;5102785;28;19956;-73
2022/04/14 11:17:01;;;;;;;;;;;22.90;99.90;;;;;;5102365;28;20780;-71
2022/04/14 11:19:29;;;;;;;;;;;23.50;99.90;;;;;;5091906;28;19960;-72
2022/04/14 11:21:59;;;;;;;;;;;23.90;99.90;;;;;;5104515;28;20021;-73
2022/04/14 11:24:33;;;;;;;;;;;24.70;99.90;;;;;;5096017;28;19956;-73
2022/04/14 11:27:08;;;;;;;;;;;25.70;99.90;;;;;;5099515;28;20190;-72
2022/04/14 11:29:35;;;;;;;;;;;26.50;99.90;;;;;;5104651;28;20597;-70
2022/04/14 11:32:01;;;;;;;;;;;27.30;99.90;;;;;;5103961;28;19954;-74
2022/04/14 11:34:32;;;;;;;;;;;27.80;99.90;;;;;;5101733;28;19948;-71
2022/04/14 11:37:01;;;;;;;;;;;27.70;99.90;;;;;;5110556;28;20007;-70
2022/04/14 11:39:27;;;;;;;;;;;27.30;99.90;;;;;;5110011;28;19945;-71
2022/04/14 11:41:54;;;;;;;;;;;28.10;99.90;;;;;;5100978;28;19949;-71
2022/04/14 11:44:22;;;;;;;;;;;28.80;99.90;;;;;;5103671;28;19948;-72
2022/04/14 11:46:49;;;;;;;;;;;28.60;98.70;;;;;;5100784;28;20070;-73
2022/04/14 11:49:19;;;;;;;;;;;29.30;98.20;;;;;;5111864;28;19948;-73
2022/04/14 11:51:48;;;;;;;;;;;30.00;97.00;;;;;;5102442;28;19948;-71
2022/04/14 11:54:20;;;;;;;;;;;29.50;95.80;;;;;;5105984;28;20509;-70
2022/04/14 11:56:50;;;;;;;;;;;28.20;96.10;;;;;;5110175;28;20001;-73
2022/04/14 11:59:18;;;;;;;;;;;28.90;95.10;;;;;;5099674;28;19951;-70
2022/04/14 12:01:49;;;;;;;;;;;29.60;93.60;;;;;;5099954;28;19953;-72
2022/04/14 12:04:16;;;;;;;;;;;30.20;92.60;;;;;;5103470;28;20080;-72
2022/04/14 12:06:52;;;;;;;;;;;30.80;94.40;;;;;;5107256;28;19957;-73
2022/04/14 12:09:19;;;;;;;;;;;31.40;91.10;;;;;;5102649;28;19938;-72
2022/04/14 12:11:46;;;;;;;;;;;31.50;90.60;;;;;;5105205;28;20129;-72
2022/04/14 12:14:13;;;;;;;;;;;30.80;89.20;;;;;;5101855;28;20014;-75
2022/04/14 12:16:46;;;;;;;;;;;30.80;86.60;;;;;;5106884;28;20015;-72
2022/04/14 12:19:13;;;;;;;;;;;31.40;90.10;;;;;;5105043;28;20566;-72
2022/04/14 12:21:39;;;;;;;;;;;32.70;85.10;;;;;;5107532;28;19951;-72
2022/04/14 12:24:07;;;;;;;;;;;32.70;78.70;;;;;;5105101;28;20045;-74
2022/04/14 12:26:37;;;;;;;;;;;31.40;78.30;;;;;;5107461;28;20027;-71
2022/04/14 12:29:07;;;;;;;;;;;29.90;82.50;;;;;;5108181;28;20011;-70
2022/04/14 12:31:33;;;;;;;;;;;28.80;86.20;;;;;;5099804;28;20006;-72
2022/04/14 12:34:00;;;;;;;;;;;29.10;86.30;;;;;;5103154;28;20048;-71
2022/04/14 12:36:34;;;;;;;;;;;30.50;85.20;;;;;;5106423;28;19950;-74
2022/04/14 12:39:04;;;;;;;;;;;30.80;82.70;;;;;;5105186;28;20060;-70
2022/04/14 12:41:36;;;;;;;;;;;29.70;82.20;;;;;;5102126;28;19950;-73
2022/04/14 12:44:03;;;;;;;;;;;29.00;83.60;;;;;;5107154;28;19974;-72
2022/04/14 12:46:31;;;;;;;;;;;30.00;82.20;;;;;;5100881;28;20000;-71
2022/04/14 12:49:01;;;;;;;;;;;30.50;83.30;;;;;;5106729;28;19997;-72
2022/04/14 12:51:29;;;;;;;;;;;31.30;81.50;;;;;;5105226;28;20052;-72
2022/04/14 12:53:55;;;;;;;;;;;31.90;80.40;;;;;;5101125;28;20002;-72
2022/04/14 12:56:22;;;;;;;;;;;32.30;78.20;;;;;;5093683;28;19948;-72
2022/04/14 12:59:03;;;;;;;;;;;33.00;77.90;;;;;;5101185;28;19939;-70
2022/04/14 13:01:43;;;;;;;;;;;32.40;76.70;;;;;;5101254;28;19942;-71
2022/04/14 13:04:10;;;;;;;;;;;30.60;76.50;;;;;;5099618;28;20039;-71
2022/04/14 13:06:37;;;;;;;;;;;28.60;79.20;;;;;;5098285;28;19964;-71
2022/04/14 13:09:13;;;;;;;;;;;27.40;81.40;;;;;;5106082;28;19939;-73
2022/04/14 13:11:40;;;;;;;;;;;26.70;84.80;;;;;;5100669;28;20028;-71
2022/04/14 13:14:16;;;;;;;;;;;26.40;85.00;;;;;;5098015;28;19998;-71
2022/04/14 13:16:45;;;;;;;;;;;26.30;85.20;;;;;;5105717;27;19949;-70
2022/04/14 13:19:12;;;;;;;;;;;27.10;86.20;;;;;;5097777;28;19946;-70
2022/04/14 13:21:39;;;;;;;;;;;28.80;80.70;;;;;;5104597;27;19958;-72
2022/04/14 13:24:05;;;;;;;;;;;28.80;80.20;;;;;;5108771;28;19959;-73
2022/04/14 13:26:32;;;;;;;;;;;28.60;81.20;;;;;;5112946;27;19970;-75
2022/04/14 13:28:59;;;;;;;;;;;27.80;79.60;;;;;;5100265;28;19945;-72
2022/04/14 13:31:25;;;;;;;;;;;27.20;80.00;;;;;;5096430;28;20339;-71
2022/04/14 13:33:53;;;;;;;;;;;27.60;81.30;;;;;;5104407;28;19971;-71
2022/04/14 13:36:20;;;;;;;;;;;27.40;80.80;;;;;;5099686;28;19940;-73
2022/04/14 13:38:46;;;;;;;;;;;27.00;84.30;;;;;;5105269;28;19998;-74
2022/04/14 13:41:13;;;;;;;;;;;26.40;85.60;;;;;;5098840;28;20038;-74
2022/04/14 13:43:40;;;;;;;;;;;26.00;85.90;;;;;;5101227;28;20001;-72
2022/04/14 13:46:07;;;;;;;;;;;25.90;86.70;;;;;;5102158;28;20052;-75
2022/04/14 13:48:33;;;;;;;;;;;26.30;84.20;;;;;;5092749;28;19999;-73
2022/04/14 13:51:01;;;;;;;;;;;26.90;81.80;;;;;;5104875;28;19947;-72
2022/04/14 13:53:28;;;;;;;;;;;26.60;84.60;;;;;;5104144;28;20353;-73
2022/04/14 13:55:55;;;;;;;;;;;26.00;81.50;;;;;;5098887;28;19969;-74
2022/04/14 13:58:22;;;;;;;;;;;25.50;82.80;;;;;;5105921;28;19953;-72
2022/04/14 14:00:48;;;;;;;;;;;24.90;84.80;;;;;;5105419;28;20047;-72
2022/04/14 14:03:15;;;;;;;;;;;25.30;86.80;;;;;;5103630;28;20110;-75
2022/04/14 14:05:41;;;;;;;;;;;25.90;88.10;;;;;;5104110;28;20397;-73
2022/04/14 14:08:09;;;;;;;;;;;26.30;85.00;;;;;;5104631;28;20054;-71
2022/04/14 14:10:36;;;;;;;;;;;26.00;87.60;;;;;;5100870;28;19948;-73
2022/04/14 14:13:03;;;;;;;;;;;26.30;87.40;;;;;;5104425;28;19964;-70
2022/04/14 14:15:29;;;;;;;;;;;26.90;86.50;;;;;;5104219;28;19953;-71
2022/04/14 14:17:56;;;;;;;;;;;26.60;86.60;;;;;;5100905;28;19961;-71
2022/04/14 14:20:23;;;;;;;;;;;27.40;86.30;;;;;;5099627;28;20355;-70
2022/04/14 14:22:49;;;;;;;;;;;27.50;85.10;;;;;;5101218;28;19956;-73
2022/04/14 14:25:17;;;;;;;;;;;26.90;88.00;;;;;;5103936;28;19948;-74
2022/04/14 14:27:44;;;;;;;;;;;26.20;87.40;;;;;;5107840;28;19958;-78
2022/04/14 14:30:11;;;;;;;;;;;26.60;87.90;;;;;;5104452;28;20052;-77
2022/04/14 14:32:38;;;;;;;;;;;26.80;85.20;;;;;;5117234;28;19983;-77